sensor_id;sensor_type;location;lat;lon;timestamp;pressure;altitude;pressure_sealevel;temperature;humidity
6899;BME280;3488;42.616;23.350;2024-01-30T00:01:10;95245.09;;;-2.20;67.17
6899;BME280;3488;42.616;23.350;2024-01-30T00:03:36;95252.19;;;-2.16;68.39
6899;BME280;3488;42.616;23.350;2024-01-30T00:06:03;95241.13;;;-2.23;67.42
6899;BME280;3488;42.616;23.350;2024-01-30T00:08:28;95258.53;;;-2.12;66.56
6899;BME280;3488;42.616;23.350;2024-01-30T00:10:53;95257.28;;;-2.16;66.73
6899;BME280;3488;42.616;23.350;2024-01-30T00:13:19;95256.75;;;-2.11;66.82
6899;BME280;3488;42.616;23.350;2024-01-30T00:15:45;95255.63;;;-2.09;66.87
6899;BME280;3488;42.616;23.350;2024-01-30T00:18:11;95237.66;;;-2.22;67.28
6899;BME280;3488;42.616;23.350;2024-01-30T00:20:36;95261.31;;;-2.07;66.93
6899;BME280;3488;42.616;23.350;2024-01-30T00:23:01;95245.75;;;-2.41;65.12
6899;BME280;3488;42.616;23.350;2024-01-30T00:25:27;95267.34;;;-2.22;66.67
6899;BME280;3488;42.616;23.350;2024-01-30T00:27:52;95251.19;;;-2.29;65.44
6899;BME280;3488;42.616;23.350;2024-01-30T00:30:18;95263.78;;;-2.13;66.47
6899;BME280;3488;42.616;23.350;2024-01-30T00:32:43;95239.13;;;-2.27;65.50
6899;BME280;3488;42.616;23.350;2024-01-30T00:35:09;95268.16;;;-2.22;64.72
6899;BME280;3488;42.616;23.350;2024-01-30T00:37:35;95258.09;;;-2.38;65.67
6899;BME280;3488;42.616;23.350;2024-01-30T00:40:01;95260.25;;;-2.27;66.74
6899;BME280;3488;42.616;23.350;2024-01-30T00:42:26;95243.91;;;-2.47;66.85
6899;BME280;3488;42.616;23.350;2024-01-30T00:44:51;95263.13;;;-2.30;66.66
6899;BME280;3488;42.616;23.350;2024-01-30T00:47:17;95251.28;;;-2.37;66.45
6899;BME280;3488;42.616;23.350;2024-01-30T00:49:43;95259.94;;;-2.46;67.44
6899;BME280;3488;42.616;23.350;2024-01-30T00:52:08;95246.41;;;-2.62;68.42
6899;BME280;3488;42.616;23.350;2024-01-30T00:54:34;95269.03;;;-2.52;66.41
6899;BME280;3488;42.616;23.350;2024-01-30T00:56:59;95270.00;;;-2.53;66.59
6899;BME280;3488;42.616;23.350;2024-01-30T00:59:25;95259.91;;;-2.61;66.78
6899;BME280;3488;42.616;23.350;2024-01-30T01:01:50;95255.47;;;-2.67;66.52
6899;BME280;3488;42.616;23.350;2024-01-30T01:04:16;95253.97;;;-2.76;67.67
6899;BME280;3488;42.616;23.350;2024-01-30T01:06:43;95248.78;;;-2.83;67.52
6899;BME280;3488;42.616;23.350;2024-01-30T01:09:11;95252.44;;;-2.85;67.76
6899;BME280;3488;42.616;23.350;2024-01-30T01:11:37;95232.31;;;-3.09;67.92
6899;BME280;3488;42.616;23.350;2024-01-30T01:14:03;95257.03;;;-3.03;69.04
6899;BME280;3488;42.616;23.350;2024-01-30T01:16:28;95243.22;;;-3.31;68.59
6899;BME280;3488;42.616;23.350;2024-01-30T01:18:54;95254.31;;;-3.32;70.37
6899;BME280;3488;42.616;23.350;2024-01-30T01:21:20;95252.63;;;-3.40;70.22
6899;BME280;3488;42.616;23.350;2024-01-30T01:23:45;95261.91;;;-3.55;70.63
6899;BME280;3488;42.616;23.350;2024-01-30T01:26:10;95206.41;;;-3.89;71.23
6899;BME280;3488;42.616;23.350;2024-01-30T01:28:36;95255.28;;;-3.64;71.24
6899;BME280;3488;42.616;23.350;2024-01-30T01:31:01;95258.66;;;-3.71;71.36
6899;BME280;3488;42.616;23.350;2024-01-30T01:33:34;95260.53;;;-3.73;70.29
6899;BME280;3488;42.616;23.350;2024-01-30T01:36:01;95259.88;;;-3.67;69.83
6899;BME280;3488;42.616;23.350;2024-01-30T01:38:29;95262.53;;;-3.61;69.36
6899;BME280;3488;42.616;23.350;2024-01-30T01:40:54;95257.00;;;-3.56;69.62
6899;BME280;3488;42.616;23.350;2024-01-30T01:43:19;95249.69;;;-3.51;67.98
6899;BME280;3488;42.616;23.350;2024-01-30T01:45:45;95242.53;;;-3.48;69.13
6899;BME280;3488;42.616;23.350;2024-01-30T01:48:11;95260.47;;;-3.27;68.43
6899;BME280;3488;42.616;23.350;2024-01-30T01:50:38;95250.84;;;-3.31;69.15
6899;BME280;3488;42.616;23.350;2024-01-30T01:53:07;95259.38;;;-3.02;66.33
6899;BME280;3488;42.616;23.350;2024-01-30T01:55:33;95216.63;;;-3.13;67.83
6899;BME280;3488;42.616;23.350;2024-01-30T01:58:01;95240.09;;;-2.88;66.70
6899;BME280;3488;42.616;23.350;2024-01-30T02:00:26;95257.16;;;-2.74;66.30
6899;BME280;3488;42.616;23.350;2024-01-30T02:02:53;95230.41;;;-2.85;65.12
6899;BME280;3488;42.616;23.350;2024-01-30T02:05:20;95265.78;;;-2.61;64.57
6899;BME280;3488;42.616;23.350;2024-01-30T02:07:46;95272.59;;;-2.61;64.61
6899;BME280;3488;42.616;23.350;2024-01-30T02:10:12;95265.88;;;-2.54;65.04
6899;BME280;3488;42.616;23.350;2024-01-30T02:12:38;95260.63;;;-2.53;65.18
6899;BME280;3488;42.616;23.350;2024-01-30T02:15:03;95260.81;;;-2.39;66.80
6899;BME280;3488;42.616;23.350;2024-01-30T02:17:30;95263.53;;;-2.41;65.85
6899;BME280;3488;42.616;23.350;2024-01-30T02:19:55;95262.25;;;-2.60;66.35
6899;BME280;3488;42.616;23.350;2024-01-30T02:22:21;95245.59;;;-2.62;66.17
6899;BME280;3488;42.616;23.350;2024-01-30T02:24:47;95219.59;;;-2.64;65.58
6899;BME280;3488;42.616;23.350;2024-01-30T02:27:13;95258.31;;;-2.25;65.15
6899;BME280;3488;42.616;23.350;2024-01-30T02:29:38;95240.50;;;-2.25;65.15
6899;BME280;3488;42.616;23.350;2024-01-30T02:32:04;95258.16;;;-2.09;65.04
6899;BME280;3488;42.616;23.350;2024-01-30T02:34:30;95241.50;;;-2.11;64.47
6899;BME280;3488;42.616;23.350;2024-01-30T02:36:55;95257.63;;;-2.04;63.54
6899;BME280;3488;42.616;23.350;2024-01-30T02:39:21;95244.75;;;-2.03;64.18
6899;BME280;3488;42.616;23.350;2024-01-30T02:41:46;95266.41;;;-1.92;63.80
6899;BME280;3488;42.616;23.350;2024-01-30T02:44:12;95257.81;;;-2.06;62.25
6899;BME280;3488;42.616;23.350;2024-01-30T02:46:37;95261.91;;;-2.05;63.00
6899;BME280;3488;42.616;23.350;2024-01-30T02:49:03;95262.03;;;-1.98;63.12
6899;BME280;3488;42.616;23.350;2024-01-30T02:51:28;95259.59;;;-1.92;64.13
6899;BME280;3488;42.616;23.350;2024-01-30T02:53:54;95254.50;;;-1.92;63.97
6899;BME280;3488;42.616;23.350;2024-01-30T02:56:19;95260.38;;;-1.77;64.10
6899;BME280;3488;42.616;23.350;2024-01-30T02:58:45;95251.94;;;-1.77;63.44
6899;BME280;3488;42.616;23.350;2024-01-30T03:01:10;95262.81;;;-1.69;61.98
6899;BME280;3488;42.616;23.350;2024-01-30T03:03:36;95258.00;;;-1.64;60.37
6899;BME280;3488;42.616;23.350;2024-01-30T03:06:02;95258.78;;;-1.63;61.61
6899;BME280;3488;42.616;23.350;2024-01-30T03:08:28;95238.69;;;-1.73;61.17
6899;BME280;3488;42.616;23.350;2024-01-30T03:10:54;95240.72;;;-1.83;62.30
6899;BME280;3488;42.616;23.350;2024-01-30T03:13:21;95249.41;;;-1.77;61.33
6899;BME280;3488;42.616;23.350;2024-01-30T03:15:48;95251.84;;;-1.69;61.68
6899;BME280;3488;42.616;23.350;2024-01-30T03:18:14;95216.94;;;-1.90;60.12
6899;BME280;3488;42.616;23.350;2024-01-30T03:20:39;95233.97;;;-1.76;60.88
6899;BME280;3488;42.616;23.350;2024-01-30T03:23:05;95227.31;;;-1.77;60.30
6899;BME280;3488;42.616;23.350;2024-01-30T03:25:31;95250.63;;;-1.88;60.66
6899;BME280;3488;42.616;23.350;2024-01-30T03:27:56;95195.38;;;-2.23;60.79
6899;BME280;3488;42.616;23.350;2024-01-30T03:30:21;95247.03;;;-2.08;62.49
6899;BME280;3488;42.616;23.350;2024-01-30T03:32:47;95241.59;;;-2.05;63.42
6899;BME280;3488;42.616;23.350;2024-01-30T03:35:13;95250.63;;;-1.88;62.77
6899;BME280;3488;42.616;23.350;2024-01-30T03:37:38;95249.56;;;-2.08;62.46
6899;BME280;3488;42.616;23.350;2024-01-30T03:40:04;95213.00;;;-2.36;62.36
6899;BME280;3488;42.616;23.350;2024-01-30T03:42:30;95228.78;;;-2.11;62.52
6899;BME280;3488;42.616;23.350;2024-01-30T03:44:56;95241.78;;;-1.92;61.65
6899;BME280;3488;42.616;23.350;2024-01-30T03:47:22;95244.56;;;-2.30;61.81
6899;BME280;3488;42.616;23.350;2024-01-30T03:49:47;95242.81;;;-2.15;61.91
6899;BME280;3488;42.616;23.350;2024-01-30T03:52:13;95195.13;;;-2.28;61.92
6899;BME280;3488;42.616;23.350;2024-01-30T03:54:38;95240.91;;;-1.99;58.80
6899;BME280;3488;42.616;23.350;2024-01-30T03:57:05;95218.69;;;-2.05;60.19
6899;BME280;3488;42.616;23.350;2024-01-30T03:59:31;95203.19;;;-2.24;57.89
6899;BME280;3488;42.616;23.350;2024-01-30T04:01:57;95208.63;;;-2.27;59.91
6899;BME280;3488;42.616;23.350;2024-01-30T04:04:22;95236.50;;;-2.05;58.76
6899;BME280;3488;42.616;23.350;2024-01-30T04:06:48;95239.03;;;-2.05;58.97
6899;BME280;3488;42.616;23.350;2024-01-30T04:09:14;95226.25;;;-2.11;58.88
6899;BME280;3488;42.616;23.350;2024-01-30T04:11:40;95214.94;;;-2.09;60.33
6899;BME280;3488;42.616;23.350;2024-01-30T04:14:05;95206.16;;;-2.21;59.65
6899;BME280;3488;42.616;23.350;2024-01-30T04:16:31;95231.94;;;-2.09;59.94
6899;BME280;3488;42.616;23.350;2024-01-30T04:18:58;95214.06;;;-2.30;60.32
6899;BME280;3488;42.616;23.350;2024-01-30T04:21:23;95184.34;;;-2.44;60.10
6899;BME280;3488;42.616;23.350;2024-01-30T04:23:50;95234.03;;;-2.27;61.77
6899;BME280;3488;42.616;23.350;2024-01-30T04:26:18;95216.91;;;-2.33;61.61
6899;BME280;3488;42.616;23.350;2024-01-30T04:28:46;95196.03;;;-2.58;61.08
6899;BME280;3488;42.616;23.350;2024-01-30T04:31:12;95224.28;;;-2.38;60.66
6899;BME280;3488;42.616;23.350;2024-01-30T04:33:37;95240.56;;;-2.47;62.38
6899;BME280;3488;42.616;23.350;2024-01-30T04:36:04;95243.00;;;-2.54;62.53
6899;BME280;3488;42.616;23.350;2024-01-30T04:38:31;95234.50;;;-2.61;60.90
6899;BME280;3488;42.616;23.350;2024-01-30T04:40:56;95234.31;;;-2.60;59.96
6899;BME280;3488;42.616;23.350;2024-01-30T04:43:22;95247.41;;;-2.48;60.41
6899;BME280;3488;42.616;23.350;2024-01-30T04:45:49;95229.75;;;-2.64;58.96
6899;BME280;3488;42.616;23.350;2024-01-30T04:48:14;95227.44;;;-2.74;61.01
6899;BME280;3488;42.616;23.350;2024-01-30T04:50:40;95246.28;;;-2.68;62.69
6899;BME280;3488;42.616;23.350;2024-01-30T04:53:05;95244.31;;;-3.03;64.55
6899;BME280;3488;42.616;23.350;2024-01-30T04:55:31;95249.19;;;-3.16;64.38
6899;BME280;3488;42.616;23.350;2024-01-30T04:57:57;95240.75;;;-3.17;64.26
6899;BME280;3488;42.616;23.350;2024-01-30T05:00:22;95262.97;;;-3.19;62.71
6899;BME280;3488;42.616;23.350;2024-01-30T05:02:48;95261.06;;;-3.17;63.00
6899;BME280;3488;42.616;23.350;2024-01-30T05:05:13;95260.78;;;-3.22;61.97
6899;BME280;3488;42.616;23.350;2024-01-30T05:07:41;95244.06;;;-3.39;61.96
6899;BME280;3488;42.616;23.350;2024-01-30T05:10:07;95253.44;;;-3.39;64.05
6899;BME280;3488;42.616;23.350;2024-01-30T05:12:33;95252.00;;;-3.42;62.28
6899;BME280;3488;42.616;23.350;2024-01-30T05:14:58;95254.84;;;-3.37;63.50
6899;BME280;3488;42.616;23.350;2024-01-30T05:17:24;95272.47;;;-3.43;65.46
6899;BME280;3488;42.616;23.350;2024-01-30T05:19:49;95269.75;;;-3.42;65.57
6899;BME280;3488;42.616;23.350;2024-01-30T05:22:15;95262.94;;;-3.41;65.02
6899;BME280;3488;42.616;23.350;2024-01-30T05:24:43;95256.78;;;-3.47;64.98
6899;BME280;3488;42.616;23.350;2024-01-30T05:27:08;95270.56;;;-3.49;65.99
6899;BME280;3488;42.616;23.350;2024-01-30T05:29:34;95253.81;;;-3.58;66.63
6899;BME280;3488;42.616;23.350;2024-01-30T05:31:59;95273.75;;;-3.47;67.73
6899;BME280;3488;42.616;23.350;2024-01-30T05:34:25;95273.88;;;-3.41;66.50
6899;BME280;3488;42.616;23.350;2024-01-30T05:36:51;95208.56;;;-3.78;66.52
6899;BME280;3488;42.616;23.350;2024-01-30T05:39:17;95276.03;;;-3.30;67.99
6899;BME280;3488;42.616;23.350;2024-01-30T05:41:42;95251.53;;;-3.45;67.86
6899;BME280;3488;42.616;23.350;2024-01-30T05:44:07;95277.16;;;-3.32;67.45
6899;BME280;3488;42.616;23.350;2024-01-30T05:46:35;95255.34;;;-3.49;68.64
6899;BME280;3488;42.616;23.350;2024-01-30T05:49:00;95273.41;;;-3.44;67.19
6899;BME280;3488;42.616;23.350;2024-01-30T05:51:26;95285.09;;;-3.35;66.65
6899;BME280;3488;42.616;23.350;2024-01-30T05:53:51;95284.53;;;-3.45;67.99
6899;BME280;3488;42.616;23.350;2024-01-30T05:56:16;95269.63;;;-3.48;67.17
6899;BME280;3488;42.616;23.350;2024-01-30T05:58:42;95262.81;;;-3.48;66.42
6899;BME280;3488;42.616;23.350;2024-01-30T06:01:08;95238.63;;;-3.58;65.88
6899;BME280;3488;42.616;23.350;2024-01-30T06:03:34;95237.72;;;-3.73;66.00
6899;BME280;3488;42.616;23.350;2024-01-30T06:06:00;95277.19;;;-3.40;66.08
6899;BME280;3488;42.616;23.350;2024-01-30T06:08:25;95278.16;;;-3.41;67.17
6899;BME280;3488;42.616;23.350;2024-01-30T06:10:51;95285.16;;;-3.43;68.09
6899;BME280;3488;42.616;23.350;2024-01-30T06:13:17;95280.06;;;-3.43;68.12
6899;BME280;3488;42.616;23.350;2024-01-30T06:15:43;95279.28;;;-3.44;68.62
6899;BME280;3488;42.616;23.350;2024-01-30T06:18:08;95271.19;;;-3.47;68.35
6899;BME280;3488;42.616;23.350;2024-01-30T06:20:34;95256.06;;;-3.63;68.91
6899;BME280;3488;42.616;23.350;2024-01-30T06:22:59;95281.97;;;-3.45;67.97
6899;BME280;3488;42.616;23.350;2024-01-30T06:25:25;95265.53;;;-3.57;68.88
6899;BME280;3488;42.616;23.350;2024-01-30T06:27:50;95273.28;;;-3.51;70.09
6899;BME280;3488;42.616;23.350;2024-01-30T06:30:16;95280.31;;;-3.30;68.01
6899;BME280;3488;42.616;23.350;2024-01-30T06:32:41;95287.44;;;-3.26;68.38
6899;BME280;3488;42.616;23.350;2024-01-30T06:35:06;95282.66;;;-3.21;67.28
6899;BME280;3488;42.616;23.350;2024-01-30T06:37:33;95263.19;;;-3.28;66.08
6899;BME280;3488;42.616;23.350;2024-01-30T06:39:58;95291.88;;;-2.97;65.87
6899;BME280;3488;42.616;23.350;2024-01-30T06:42:24;95279.03;;;-2.96;62.52
6899;BME280;3488;42.616;23.350;2024-01-30T06:44:49;95293.00;;;-2.77;63.40
6899;BME280;3488;42.616;23.350;2024-01-30T06:47:15;95242.41;;;-3.01;62.68
6899;BME280;3488;42.616;23.350;2024-01-30T06:49:41;95270.50;;;-2.80;63.20
6899;BME280;3488;42.616;23.350;2024-01-30T06:52:07;95293.81;;;-2.54;63.02
6899;BME280;3488;42.616;23.350;2024-01-30T06:54:33;95275.53;;;-2.49;60.59
6899;BME280;3488;42.616;23.350;2024-01-30T06:56:59;95283.91;;;-2.26;58.89
6899;BME280;3488;42.616;23.350;2024-01-30T06:59:25;95266.97;;;-2.34;58.53
6899;BME280;3488;42.616;23.350;2024-01-30T07:01:50;95286.03;;;-2.15;58.62
6899;BME280;3488;42.616;23.350;2024-01-30T07:04:15;95279.97;;;-2.00;58.28
6899;BME280;3488;42.616;23.350;2024-01-30T07:06:41;95277.75;;;-1.80;58.18
6899;BME280;3488;42.616;23.350;2024-01-30T07:09:07;95293.16;;;-1.38;59.57
6899;BME280;3488;42.616;23.350;2024-01-30T07:11:33;95232.09;;;-1.38;56.92
6899;BME280;3488;42.616;23.350;2024-01-30T07:13:59;95289.56;;;-0.93;54.78
6899;BME280;3488;42.616;23.350;2024-01-30T07:16:24;95284.72;;;-0.88;55.28
6899;BME280;3488;42.616;23.350;2024-01-30T07:18:50;95262.44;;;-1.37;54.21
6899;BME280;3488;42.616;23.350;2024-01-30T07:21:15;95287.94;;;-1.15;54.18
6899;BME280;3488;42.616;23.350;2024-01-30T07:23:41;95269.81;;;-1.56;54.79
6899;BME280;3488;42.616;23.350;2024-01-30T07:26:08;95286.03;;;-1.43;55.37
6899;BME280;3488;42.616;23.350;2024-01-30T07:28:34;95269.00;;;-1.28;53.35
6899;BME280;3488;42.616;23.350;2024-01-30T07:31:01;95295.25;;;-1.27;54.44
6899;BME280;3488;42.616;23.350;2024-01-30T07:33:27;95247.28;;;-1.59;54.42
6899;BME280;3488;42.616;23.350;2024-01-30T07:35:52;95288.25;;;-1.40;54.23
6899;BME280;3488;42.616;23.350;2024-01-30T07:38:18;95274.44;;;-1.31;54.57
6899;BME280;3488;42.616;23.350;2024-01-30T07:40:44;95281.41;;;-1.03;55.17
6899;BME280;3488;42.616;23.350;2024-01-30T07:43:09;95261.53;;;-1.14;54.44
6899;BME280;3488;42.616;23.350;2024-01-30T07:45:35;95275.97;;;-1.00;54.26
6899;BME280;3488;42.616;23.350;2024-01-30T07:48:00;95283.03;;;-1.17;53.00
6899;BME280;3488;42.616;23.350;2024-01-30T07:50:26;95281.13;;;-0.94;53.23
6899;BME280;3488;42.616;23.350;2024-01-30T07:52:52;95260.22;;;-0.89;53.45
6899;BME280;3488;42.616;23.350;2024-01-30T07:55:39;95282.66;;;-0.99;54.01
6899;BME280;3488;42.616;23.350;2024-01-30T07:58:04;95254.34;;;-1.26;53.10
6899;BME280;3488;42.616;23.350;2024-01-30T08:00:30;95283.63;;;-0.79;53.88
6899;BME280;3488;42.616;23.350;2024-01-30T08:02:56;95262.34;;;-0.93;53.24
6899;BME280;3488;42.616;23.350;2024-01-30T08:05:23;95256.63;;;-0.74;53.34
6899;BME280;3488;42.616;23.350;2024-01-30T08:07:49;95274.06;;;-0.56;52.29
6899;BME280;3488;42.616;23.350;2024-01-30T08:10:15;95245.59;;;-0.39;51.70
6899;BME280;3488;42.616;23.350;2024-01-30T08:12:41;95230.63;;;-0.42;53.56
6899;BME280;3488;42.616;23.350;2024-01-30T08:15:06;95253.97;;;-0.17;50.80
6899;BME280;3488;42.616;23.350;2024-01-30T08:17:33;95270.34;;;-0.54;52.20
6899;BME280;3488;42.616;23.350;2024-01-30T08:19:58;95274.88;;;-0.28;52.25
6899;BME280;3488;42.616;23.350;2024-01-30T08:22:24;95275.47;;;-0.26;51.25
6899;BME280;3488;42.616;23.350;2024-01-30T08:24:49;95245.31;;;-0.44;50.84
6899;BME280;3488;42.616;23.350;2024-01-30T08:27:15;95186.16;;;-0.88;50.87
6899;BME280;3488;42.616;23.350;2024-01-30T08:29:40;95196.00;;;-1.06;50.40
6899;BME280;3488;42.616;23.350;2024-01-30T08:32:06;95280.53;;;-0.75;51.73
6899;BME280;3488;42.616;23.350;2024-01-30T08:34:32;95189.78;;;-0.97;51.51
6899;BME280;3488;42.616;23.350;2024-01-30T08:36:57;95278.50;;;0.12;50.24
6899;BME280;3488;42.616;23.350;2024-01-30T08:39:23;95279.97;;;0.27;49.22
6899;BME280;3488;42.616;23.350;2024-01-30T08:41:48;95275.94;;;0.46;49.29
6899;BME280;3488;42.616;23.350;2024-01-30T08:44:14;95270.94;;;-0.03;50.59
6899;BME280;3488;42.616;23.350;2024-01-30T08:46:40;95273.47;;;-0.03;50.87
6899;BME280;3488;42.616;23.350;2024-01-30T08:49:05;95267.50;;;0.11;50.22
6899;BME280;3488;42.616;23.350;2024-01-30T08:51:31;95273.84;;;0.56;50.10
6899;BME280;3488;42.616;23.350;2024-01-30T08:53:56;95275.66;;;0.62;49.80
6899;BME280;3488;42.616;23.350;2024-01-30T08:56:22;95279.91;;;0.48;48.95
6899;BME280;3488;42.616;23.350;2024-01-30T08:58:47;95283.56;;;0.73;48.50
6899;BME280;3488;42.616;23.350;2024-01-30T09:01:13;95293.84;;;0.93;48.39
6899;BME280;3488;42.616;23.350;2024-01-30T09:03:39;95278.16;;;1.02;48.00
6899;BME280;3488;42.616;23.350;2024-01-30T09:06:10;95277.56;;;1.07;47.94
6899;BME280;3488;42.616;23.350;2024-01-30T09:08:35;95272.72;;;1.38;48.50
6899;BME280;3488;42.616;23.350;2024-01-30T09:11:01;95282.91;;;1.18;47.97
6899;BME280;3488;42.616;23.350;2024-01-30T09:13:26;95285.28;;;1.26;49.40
6899;BME280;3488;42.616;23.350;2024-01-30T09:15:52;95281.44;;;1.89;48.17
6899;BME280;3488;42.616;23.350;2024-01-30T09:18:18;95229.84;;;1.60;46.71
6899;BME280;3488;42.616;23.350;2024-01-30T09:20:44;95264.88;;;2.11;44.32
6899;BME280;3488;42.616;23.350;2024-01-30T09:23:12;95243.25;;;1.94;45.13
6899;BME280;3488;42.616;23.350;2024-01-30T09:25:38;95277.63;;;2.44;45.06
6899;BME280;3488;42.616;23.350;2024-01-30T09:28:05;95281.72;;;2.58;45.09
6899;BME280;3488;42.616;23.350;2024-01-30T09:30:30;95254.78;;;2.93;43.17
6899;BME280;3488;42.616;23.350;2024-01-30T09:32:56;95255.66;;;3.18;43.42
6899;BME280;3488;42.616;23.350;2024-01-30T09:35:21;95219.28;;;3.28;40.85
6899;BME280;3488;42.616;23.350;2024-01-30T09:37:47;95205.59;;;3.16;40.77
6899;BME280;3488;42.616;23.350;2024-01-30T09:40:13;95237.91;;;3.48;40.80
6899;BME280;3488;42.616;23.350;2024-01-30T09:42:46;95189.94;;;2.42;41.17
6899;BME280;3488;42.616;23.350;2024-01-30T09:45:14;95252.66;;;2.13;43.88
6899;BME280;3488;42.616;23.350;2024-01-30T09:47:41;95245.59;;;1.63;45.16
6899;BME280;3488;42.616;23.350;2024-01-30T09:50:14;95264.50;;;2.08;44.12
6899;BME280;3488;42.616;23.350;2024-01-30T09:52:40;95249.47;;;1.07;46.62
6899;BME280;3488;42.616;23.350;2024-01-30T09:55:07;95258.78;;;1.60;45.28
6899;BME280;3488;42.616;23.350;2024-01-30T09:57:34;95264.22;;;1.11;46.03
6899;BME280;3488;42.616;23.350;2024-01-30T10:00:00;95244.91;;;0.96;47.03
6899;BME280;3488;42.616;23.350;2024-01-30T10:02:26;95256.63;;;1.83;45.25
6899;BME280;3488;42.616;23.350;2024-01-30T10:04:52;95218.84;;;1.79;44.55
6899;BME280;3488;42.616;23.350;2024-01-30T10:07:18;95249.72;;;1.45;45.94
6899;BME280;3488;42.616;23.350;2024-01-30T10:09:44;95237.13;;;1.37;46.51
6899;BME280;3488;42.616;23.350;2024-01-30T10:12:10;95223.94;;;1.92;45.40
6899;BME280;3488;42.616;23.350;2024-01-30T10:14:39;95222.47;;;2.41;44.08
6899;BME280;3488;42.616;23.350;2024-01-30T10:17:08;95213.50;;;1.93;43.61
6899;BME280;3488;42.616;23.350;2024-01-30T10:19:35;95230.94;;;2.48;43.53
6899;BME280;3488;42.616;23.350;2024-01-30T10:22:01;95233.47;;;2.55;43.03
6899;BME280;3488;42.616;23.350;2024-01-30T10:24:28;95240.06;;;2.76;42.67
6899;BME280;3488;42.616;23.350;2024-01-30T10:26:57;95225.00;;;2.48;44.54
6899;BME280;3488;42.616;23.350;2024-01-30T10:29:22;95217.84;;;1.99;44.80
6899;BME280;3488;42.616;23.350;2024-01-30T10:32:04;95203.69;;;1.25;45.69
6899;BME280;3488;42.616;23.350;2024-01-30T10:34:32;95254.84;;;0.71;48.85
6899;BME280;3488;42.616;23.350;2024-01-30T10:37:07;95259.78;;;0.39;50.10
6899;BME280;3488;42.616;23.350;2024-01-30T10:39:39;95248.50;;;1.14;48.29
6899;BME280;3488;42.616;23.350;2024-01-30T10:42:05;95254.63;;;0.60;48.42
6899;BME280;3488;42.616;23.350;2024-01-30T10:47:30;95252.94;;;0.86;49.46
6899;BME280;3488;42.616;23.350;2024-01-30T10:49:56;95259.16;;;0.71;50.24
6899;BME280;3488;42.616;23.350;2024-01-30T10:52:25;95248.84;;;0.98;49.66
6899;BME280;3488;42.616;23.350;2024-01-30T10:54:51;95246.59;;;0.69;49.42
6899;BME280;3488;42.616;23.350;2024-01-30T10:57:18;95135.25;;;0.15;49.41
6899;BME280;3488;42.616;23.350;2024-01-30T10:59:44;95244.13;;;0.42;50.13
6899;BME280;3488;42.616;23.350;2024-01-30T11:02:11;95230.56;;;0.07;51.79
6899;BME280;3488;42.616;23.350;2024-01-30T11:04:41;95227.56;;;-0.03;51.48
6899;BME280;3488;42.616;23.350;2024-01-30T11:07:24;95225.41;;;0.28;50.69
6899;BME280;3488;42.616;23.350;2024-01-30T11:12:28;95217.78;;;0.88;49.26
6899;BME280;3488;42.616;23.350;2024-01-30T11:15:08;95213.56;;;0.61;50.44
6899;BME280;3488;42.616;23.350;2024-01-30T11:20:29;95198.19;;;1.28;48.26
6899;BME280;3488;42.616;23.350;2024-01-30T11:22:57;95201.72;;;1.07;48.69
6899;BME280;3488;42.616;23.350;2024-01-30T11:25:24;95210.78;;;1.43;48.12
6899;BME280;3488;42.616;23.350;2024-01-30T11:27:54;95199.91;;;0.88;49.24
6899;BME280;3488;42.616;23.350;2024-01-30T11:30:28;95211.75;;;1.48;48.15
6899;BME280;3488;42.616;23.350;2024-01-30T11:35:26;95155.47;;;0.76;49.03
6899;BME280;3488;42.616;23.350;2024-01-30T11:37:52;95207.56;;;0.82;49.66
6899;BME280;3488;42.616;23.350;2024-01-30T11:40:19;95200.28;;;0.85;50.10
6899;BME280;3488;42.616;23.350;2024-01-30T11:42:45;95203.53;;;1.53;47.80
6899;BME280;3488;42.616;23.350;2024-01-30T11:45:12;95203.44;;;2.18;47.24
6899;BME280;3488;42.616;23.350;2024-01-30T11:47:38;95213.53;;;2.64;46.23
6899;BME280;3488;42.616;23.350;2024-01-30T11:50:04;95206.66;;;2.51;45.89
6899;BME280;3488;42.616;23.350;2024-01-30T11:52:33;95192.94;;;2.83;44.94
6899;BME280;3488;42.616;23.350;2024-01-30T11:54:59;95189.63;;;2.25;46.20
6899;BME280;3488;42.616;23.350;2024-01-30T11:57:26;95181.28;;;2.87;45.56
6899;BME280;3488;42.616;23.350;2024-01-30T11:59:52;95159.28;;;3.35;44.59
6899;BME280;3488;42.616;23.350;2024-01-30T12:02:18;95181.56;;;3.35;44.09
6899;BME280;3488;42.616;23.350;2024-01-30T12:04:44;95176.44;;;4.02;42.21
6899;BME280;3488;42.616;23.350;2024-01-30T12:07:09;95141.91;;;3.06;43.30
6899;BME280;3488;42.616;23.350;2024-01-30T12:09:35;95160.94;;;3.48;43.50
6899;BME280;3488;42.616;23.350;2024-01-30T12:12:01;95166.38;;;3.58;42.19
6899;BME280;3488;42.616;23.350;2024-01-30T12:14:26;95149.34;;;3.14;43.89
6899;BME280;3488;42.616;23.350;2024-01-30T12:16:52;95132.16;;;3.46;42.45
6899;BME280;3488;42.616;23.350;2024-01-30T12:19:22;95150.50;;;2.56;44.79
6899;BME280;3488;42.616;23.350;2024-01-30T12:21:54;95127.81;;;2.97;44.39
6899;BME280;3488;42.616;23.350;2024-01-30T12:24:20;95115.72;;;3.29;43.43
6899;BME280;3488;42.616;23.350;2024-01-30T12:26:45;95148.38;;;3.40;43.19
6899;BME280;3488;42.616;23.350;2024-01-30T12:29:11;95155.28;;;3.39;42.21
6899;BME280;3488;42.616;23.350;2024-01-30T12:31:36;95135.66;;;3.27;42.50
6899;BME280;3488;42.616;23.350;2024-01-30T12:34:02;95135.38;;;1.91;46.24
6899;BME280;3488;42.616;23.350;2024-01-30T12:36:28;95153.50;;;2.46;46.24
6899;BME280;3488;42.616;23.350;2024-01-30T12:38:56;95066.94;;;1.80;46.79
6899;BME280;3488;42.616;23.350;2024-01-30T12:41:22;95125.25;;;2.15;46.60
6899;BME280;3488;42.616;23.350;2024-01-30T12:43:53;95129.25;;;2.05;46.10
6899;BME280;3488;42.616;23.350;2024-01-30T12:46:19;95096.22;;;2.34;45.38
6899;BME280;3488;42.616;23.350;2024-01-30T12:48:45;95124.09;;;2.55;45.57
6899;BME280;3488;42.616;23.350;2024-01-30T12:51:10;95131.94;;;2.61;45.75
6899;BME280;3488;42.616;23.350;2024-01-30T12:53:36;95108.50;;;2.64;45.48
6899;BME280;3488;42.616;23.350;2024-01-30T12:56:02;95116.84;;;2.02;45.75
6899;BME280;3488;42.616;23.350;2024-01-30T12:58:27;95139.34;;;1.80;47.55
6899;BME280;3488;42.616;23.350;2024-01-30T13:00:54;95132.84;;;2.41;46.05
6899;BME280;3488;42.616;23.350;2024-01-30T13:03:19;95099.69;;;2.53;45.90
6899;BME280;3488;42.616;23.350;2024-01-30T13:05:45;95132.47;;;2.38;46.59
6899;BME280;3488;42.616;23.350;2024-01-30T13:08:11;95124.16;;;2.80;45.62
6899;BME280;3488;42.616;23.350;2024-01-30T13:10:36;95109.38;;;2.82;44.82
6899;BME280;3488;42.616;23.350;2024-01-30T13:13:02;95126.06;;;2.09;46.36
6899;BME280;3488;42.616;23.350;2024-01-30T13:15:28;95112.22;;;1.73;47.55
6899;BME280;3488;42.616;23.350;2024-01-30T13:17:53;95065.56;;;1.71;46.83
6899;BME280;3488;42.616;23.350;2024-01-30T13:20:19;95115.13;;;2.40;46.44